Time;durP1;ratioP1;P1;durP2;ratioP2;P2;SDS_P1;SDS_P2;PMS_P1;PMS_P2;Temp;Humidity;BMP_temperature;BMP_pressure;BME280_temperature;BME280_humidity;BME280_pressure;Samples;Min_cycle;Max_cycle;Signal;HPM_P1;HPM_P2
2022/07/01 00:01:49;;;;;;;;;2.00;2.00;;;;;16.37;85.44;100904.81;6294240;22;47227;-81
2022/07/01 00:04:15;;;;;;;;;2.00;2.00;;;;;16.38;86.01;100902.13;6293612;22;45362;-81
2022/07/01 00:06:40;;;;;;;;;2.00;2.00;;;;;16.34;86.14;100896.75;6322502;22;44812;-80
2022/07/01 00:09:07;;;;;;;;;1.33;1.33;;;;;16.32;86.59;100901.25;6323411;22;45533;-81
2022/07/01 00:11:33;;;;;;;;;1.00;1.00;;;;;16.26;86.71;100896.84;6323658;22;45338;-80
2022/07/01 00:13:58;;;;;;;;;2.33;1.67;;;;;16.25;88.06;100902.22;6319724;22;44727;-80
2022/07/01 00:16:23;;;;;;;;;1.67;1.67;;;;;16.26;88.24;100906.66;6319554;22;45309;-79
2022/07/01 00:18:49;;;;;;;;;1.00;1.00;;;;;16.24;88.78;100905.78;6319654;22;45247;-79
2022/07/01 00:21:14;;;;;;;;;2.00;2.00;;;;;16.17;89.32;100900.47;6290871;22;47260;-79
2022/07/01 00:23:41;;;;;;;;;2.67;2.67;;;;;16.24;89.31;100908.47;6319730;22;45318;-79
2022/07/01 00:26:08;;;;;;;;;1.00;1.00;;;;;16.25;89.97;100910.25;6317857;22;45409;-80
2022/07/01 00:28:33;;;;;;;;;1.00;1.00;;;;;16.28;89.66;100915.59;6319727;22;45816;-79
2022/07/01 00:31:00;;;;;;;;;2.00;2.00;;;;;16.15;90.03;100883.47;6291550;22;47581;-80
2022/07/01 00:33:25;;;;;;;;;1.33;1.33;;;;;16.33;90.03;100908.41;6320913;22;45361;-79
2022/07/01 00:35:57;;;;;;;;;1.00;1.00;;;;;16.37;90.15;100920.91;6292049;22;45252;-79
2022/07/01 00:38:22;;;;;;;;;1.00;1.00;;;;;16.36;90.73;100925.41;6293042;22;45428;-79
2022/07/01 00:40:55;;;;;;;;;1.33;1.33;;;;;16.34;90.53;100920.91;6320660;22;45465;-79
2022/07/01 00:43:24;;;;;;;;;2.00;2.00;;;;;16.32;90.82;100920.03;6294059;22;45322;-79
2022/07/01 00:45:55;;;;;;;;;1.00;1.00;;;;;16.23;91.05;100917.44;6322313;22;45165;-80
2022/07/01 00:48:22;;;;;;;;;1.00;1.00;;;;;16.21;91.11;100933.53;6321956;22;45496;-79
2022/07/01 00:50:47;;;;;;;;;1.00;1.00;;;;;16.19;91.26;100932.66;6321182;22;45356;-80
2022/07/01 00:53:14;;;;;;;;;1.00;1.00;;;;;16.10;91.86;100917.50;6321065;22;45381;-80
2022/07/01 00:55:41;;;;;;;;;1.33;0.67;;;;;16.07;92.10;100917.50;6292528;22;45543;-80
2022/07/01 00:58:07;;;;;;;;;2.00;1.00;;;;;16.06;92.33;100920.19;6317580;22;45263;-80
2022/07/01 01:00:33;;;;;;;;;1.00;1.00;;;;;16.10;92.66;100925.56;6320156;22;46008;-79
2022/07/01 01:02:59;;;;;;;;;3.00;2.00;;;;;16.10;92.95;100933.59;6319149;22;45380;-80
2022/07/01 01:05:25;;;;;;;;;2.33;2.33;;;;;16.11;92.97;100940.75;6319366;22;45232;-79
2022/07/01 01:07:57;;;;;;;;;1.00;1.00;;;;;16.07;93.48;100936.28;6314568;22;45464;-79
2022/07/01 01:10:25;;;;;;;;;1.00;1.00;;;;;16.06;93.58;100933.63;6319184;22;46187;-79
2022/07/01 01:12:51;;;;;;;;;1.33;1.33;;;;;16.07;93.60;100944.34;6319425;22;45293;-79
2022/07/01 01:15:23;;;;;;;;;1.00;1.00;;;;;16.09;93.88;100947.91;6319280;22;45405;-79
2022/07/01 01:17:52;;;;;;;;;3.00;2.00;;;;;16.05;93.95;100948.81;6319401;22;45335;-79
2022/07/01 01:20:32;;;;;;;;;1.00;1.00;;;;;16.04;93.99;100944.38;6318437;22;45499;-79
2022/07/01 01:22:58;;;;;;;;;1.00;1.00;;;;;16.04;94.06;100948.81;6290278;22;45348;-81
2022/07/01 01:25:24;;;;;;;;;1.67;1.00;;;;;15.99;94.67;100946.19;6320787;22;45337;-80
2022/07/01 01:27:50;;;;;;;;;1.67;1.67;;;;;15.96;95.12;100962.31;6323024;22;44777;-81
2022/07/01 01:30:15;;;;;;;;;1.00;1.00;;;;;15.88;95.46;100959.66;6322579;22;45282;-80
2022/07/01 01:32:41;;;;;;;;;1.00;1.00;;;;;15.76;96.74;100955.22;6320780;22;45278;-80
2022/07/01 01:35:09;;;;;;;;;2.00;1.00;;;;;15.75;96.72;100965.94;6321149;22;44954;-80
2022/07/01 01:37:35;;;;;;;;;2.00;2.00;;;;;15.70;96.71;100965.94;6292746;22;44969;-80
2022/07/01 01:40:01;;;;;;;;;1.00;1.00;;;;;15.74;97.09;100973.09;6320135;22;45478;-81
2022/07/01 01:42:28;;;;;;;;;1.33;1.33;;;;;15.76;97.45;100986.50;6321067;22;45383;-81
2022/07/01 01:44:56;;;;;;;;;1.67;1.67;;;;;15.73;97.54;100982.03;6321327;22;45303;-81
2022/07/01 01:47:25;;;;;;;;;2.67;1.67;;;;;15.72;98.05;100969.53;6293375;22;45419;-81
2022/07/01 01:49:51;;;;;;;;;1.00;1.00;;;;;15.67;98.27;100968.63;6320175;22;46215;-81
2022/07/01 01:52:17;;;;;;;;;1.00;1.00;;;;;15.68;98.10;100967.72;6317489;22;45361;-79
2022/07/01 01:54:44;;;;;;;;;2.00;1.33;;;;;15.74;98.76;100983.84;6318263;22;45544;-80
2022/07/01 01:57:09;;;;;;;;;1.67;1.33;;;;;15.71;98.85;100977.53;6316768;22;45120;-79
2022/07/01 01:59:35;;;;;;;;;2.00;2.00;;;;;15.76;99.03;100984.72;6317505;22;45307;-80
2022/07/01 02:02:00;;;;;;;;;2.67;2.00;;;;;15.78;99.16;100985.59;6317266;22;45506;-79
2022/07/01 02:04:26;;;;;;;;;3.67;2.00;;;;;15.76;99.11;100979.34;6318767;22;45648;-79
2022/07/01 02:07:04;;;;;;;;;1.33;1.33;;;;;15.78;99.02;100985.59;6311260;22;45042;-79
2022/07/01 02:09:30;;;;;;;;;2.00;2.00;;;;;15.77;99.02;100988.28;6317866;22;45471;-79
2022/07/01 02:11:56;;;;;;;;;2.00;2.00;;;;;15.71;98.97;100978.44;6319667;22;45700;-79
2022/07/01 02:14:22;;;;;;;;;1.00;1.00;;;;;15.70;98.84;100986.50;6318221;22;45381;-79
2022/07/01 02:16:47;;;;;;;;;1.00;1.00;;;;;15.73;99.02;100994.56;6290260;22;45146;-79
2022/07/01 02:19:13;;;;;;;;;3.00;2.00;;;;;15.68;99.35;100993.66;6318254;22;45285;-79
2022/07/01 02:21:40;;;;;;;;;2.00;2.00;;;;;15.66;99.82;100982.94;6315041;22;45243;-79
2022/07/01 02:24:05;;;;;;;;;2.00;2.00;;;;;15.64;100.00;100984.72;6315830;22;44801;-79
2022/07/01 02:26:35;;;;;;;;;2.33;2.33;;;;;15.65;100.00;100988.28;6290339;22;44798;-79
2022/07/01 02:29:03;;;;;;;;;3.00;3.00;;;;;15.64;100.00;100995.44;6317937;22;46845;-80
2022/07/01 02:31:28;;;;;;;;;2.33;2.33;;;;;15.61;100.00;100992.75;6318875;22;45331;-79
2022/07/01 02:33:54;;;;;;;;;2.67;2.67;;;;;15.56;100.00;100998.16;6316688;22;45635;-79
2022/07/01 02:36:22;;;;;;;;;3.00;3.00;;;;;15.55;100.00;100998.13;6317244;22;45381;-79
2022/07/01 02:38:48;;;;;;;;;3.00;2.00;;;;;15.50;100.00;101003.53;6318885;22;46198;-80
2022/07/01 02:41:16;;;;;;;;;2.33;2.33;;;;;15.48;100.00;101008.00;6318552;22;45273;-80
2022/07/01 02:43:41;;;;;;;;;3.00;3.00;;;;;15.49;100.00;101012.47;6319420;22;45368;-80
2022/07/01 02:46:06;;;;;;;;;3.00;3.00;;;;;15.43;100.00;101007.13;6319677;22;44725;-79
2022/07/01 02:48:32;;;;;;;;;4.67;4.33;;;;;15.48;100.00;101013.34;6289619;22;47049;-79
2022/07/01 02:50:57;;;;;;;;;4.00;4.00;;;;;15.39;100.00;101006.22;6319263;22;45334;-79
2022/07/01 02:53:27;;;;;;;;;4.33;3.67;;;;;15.42;100.00;101008.00;6290557;22;44771;-79
2022/07/01 02:55:53;;;;;;;;;2.00;2.00;;;;;15.32;100.00;100996.41;6289749;22;45490;-79
2022/07/01 02:58:18;;;;;;;;;3.00;3.00;;;;;15.36;100.00;101006.22;6318174;22;45177;-79
2022/07/01 03:00:44;;;;;;;;;2.00;2.00;;;;;15.35;100.00;101009.81;6291219;22;45413;-79
2022/07/01 03:03:11;;;;;;;;;5.00;4.00;;;;;15.33;100.00;101002.66;6317144;22;44788;-80
2022/07/01 03:05:36;;;;;;;;;3.00;3.00;;;;;15.34;100.00;101016.06;6320704;22;45336;-80
2022/07/01 03:08:02;;;;;;;;;3.00;3.00;;;;;15.34;100.00;101001.78;6273501;22;46884;-80
2022/07/01 03:10:28;;;;;;;;;2.00;2.00;;;;;15.38;100.00;101020.50;6287728;22;45306;-79
2022/07/01 03:12:53;;;;;;;;;2.00;2.00;;;;;15.37;100.00;101017.81;6259368;22;45382;-80
2022/07/01 03:15:18;;;;;;;;;1.00;1.00;;;;;15.29;100.00;101008.91;6285708;22;45128;-80
2022/07/01 03:17:47;;;;;;;;;2.00;2.00;;;;;15.35;100.00;101023.22;6286193;22;45346;-80
2022/07/01 03:20:15;;;;;;;;;2.67;2.67;;;;;15.32;100.00;101025.88;6259372;22;45386;-80
2022/07/01 03:22:43;;;;;;;;;2.00;2.00;;;;;15.29;100.00;101023.22;6285891;22;45541;-81
2022/07/01 03:25:09;;;;;;;;;2.00;2.00;;;;;15.30;100.00;101025.00;6287387;22;45278;-80
2022/07/01 03:27:35;;;;;;;;;3.33;2.33;;;;;15.27;100.00;101029.44;6258706;22;46831;-79
2022/07/01 03:30:05;;;;;;;;;2.00;2.00;;;;;15.25;100.00;101025.88;6288617;22;45192;-80
2022/07/01 03:32:31;;;;;;;;;0.00;0.00;;;;;15.15;100.00;101020.53;6261113;22;45797;-79
2022/07/01 03:34:56;;;;;;;;;2.00;2.00;;;;;15.16;100.00;101026.78;6289750;22;44932;-80
2022/07/01 03:37:22;;;;;;;;;2.33;2.00;;;;;15.16;100.00;101032.13;6288888;22;45330;-80
2022/07/01 03:39:49;;;;;;;;;2.00;2.00;;;;;15.14;100.00;101040.16;6285789;22;45357;-78
2022/07/01 03:42:15;;;;;;;;;0.00;0.00;;;;;15.08;100.00;101037.50;6261459;22;44788;-79
2022/07/01 03:44:41;;;;;;;;;2.33;2.33;;;;;14.96;100.00;101030.34;6261311;22;45341;-79
2022/07/01 03:47:09;;;;;;;;;2.00;2.00;;;;;15.02;99.98;101050.00;6261393;22;45404;-80
2022/07/01 03:49:37;;;;;;;;;1.00;1.00;;;;;14.96;99.94;101041.06;6260638;22;45432;-80
2022/07/01 03:52:03;;;;;;;;;1.00;1.00;;;;;14.92;100.00;101039.25;6286904;22;45283;-80
2022/07/01 03:57:51;;;;;;;;;4.00;2.33;;;;;14.87;99.88;101050.88;6287978;22;45417;-78
2022/07/01 04:00:17;;;;;;;;;2.00;2.00;;;;;14.90;99.85;101061.59;6259409;22;45349;-79
2022/07/01 04:02:43;;;;;;;;;2.00;2.00;;;;;14.74;99.29;101033.88;6286205;22;45405;-79
2022/07/01 04:05:12;;;;;;;;;1.00;1.00;;;;;14.73;100.00;101038.38;6258364;22;52176;-79
2022/07/01 04:07:38;;;;;;;;;1.00;1.00;;;;;14.88;100.00;101058.00;6295133;22;46757;-81
2022/07/01 04:10:03;;;;;;;;;1.00;1.00;;;;;14.76;100.00;101048.16;6321613;22;45449;-81
2022/07/01 04:12:32;;;;;;;;;3.33;2.33;;;;;14.83;100.00;101068.72;6292673;22;44833;-79
2022/07/01 04:22:37;;;;;;;;;3.00;3.00;;;;;14.83;100.00;101070.53;6321145;22;45349;-80
2022/07/01 04:25:04;;;;;;;;;3.00;3.00;;;;;14.85;100.00;101079.44;6292123;22;45271;-79
2022/07/01 04:27:37;;;;;;;;;2.00;2.00;;;;;14.86;100.00;101075.88;6319498;22;45271;-79
2022/07/01 04:30:05;;;;;;;;;1.00;1.00;;;;;14.88;100.00;101074.97;6320106;22;45378;-79
2022/07/01 04:32:31;;;;;;;;;2.67;2.33;;;;;14.96;100.00;101078.53;6291464;22;44661;-80
2022/07/01 04:34:57;;;;;;;;;2.00;2.00;;;;;15.06;100.00;101083.94;6318528;22;45577;-80
2022/07/01 04:37:23;;;;;;;;;1.67;1.67;;;;;15.13;99.53;101075.03;6292892;22;45389;-80
2022/07/01 04:39:48;;;;;;;;;2.00;2.00;;;;;15.17;99.31;101077.69;6292252;22;46106;-80
2022/07/01 04:42:15;;;;;;;;;1.00;1.00;;;;;15.29;98.84;101082.16;6318876;22;45447;-80
2022/07/01 04:44:40;;;;;;;;;2.00;2.00;;;;;15.39;98.33;101078.59;6293352;22;45311;-81
2022/07/01 04:47:09;;;;;;;;;2.00;1.00;;;;;15.52;97.97;101089.31;6322311;22;45378;-81
2022/07/01 04:49:36;;;;;;;;;2.00;2.00;;;;;15.57;97.21;101082.13;6317952;22;46921;-79
2022/07/01 04:52:01;;;;;;;;;2.33;1.67;;;;;15.63;97.03;101086.59;6290587;22;45328;-80
2022/07/01 04:54:29;;;;;;;;;2.00;2.00;;;;;15.71;96.57;101085.69;6318655;22;45388;-79
2022/07/01 04:56:55;;;;;;;;;1.33;1.33;;;;;15.75;95.91;101071.44;6289878;22;45822;-78
2022/07/01 05:03:35;;;;;;;;;1.00;1.00;;;;;16.09;94.68;101089.22;6319653;22;45407;-80
2022/07/01 05:06:01;;;;;;;;;3.00;1.00;;;;;16.16;93.46;101081.16;6291751;22;45489;-80
2022/07/01 05:08:28;;;;;;;;;1.33;1.33;;;;;16.33;92.92;101090.94;6273503;22;45306;-80
2022/07/01 05:10:54;;;;;;;;;2.00;2.00;;;;;16.46;92.80;101095.38;6261998;22;47942;-80
2022/07/01 05:13:19;;;;;;;;;2.33;2.33;;;;;16.56;91.90;101098.88;6286819;22;45274;-79
2022/07/01 05:15:45;;;;;;;;;2.67;2.00;;;;;16.61;90.67;101094.38;6260407;22;45101;-80
2022/07/01 05:23:41;;;;;;;;;2.00;2.00;;;;;16.69;88.07;101105.09;6289708;22;45279;-79
2022/07/01 05:26:15;;;;;;;;;2.00;2.00;;;;;16.74;87.36;101104.19;6260369;22;45582;-80
2022/07/01 05:28:44;;;;;;;;;3.00;1.00;;;;;16.86;87.01;101092.47;6289794;22;45278;-80
2022/07/01 05:31:10;;;;;;;;;2.00;2.00;;;;;16.98;86.25;101091.50;6261984;22;46774;-80
2022/07/01 05:33:35;;;;;;;;;3.67;2.00;;;;;17.16;85.35;101091.38;6289588;22;45323;-80
2022/07/01 05:36:01;;;;;;;;;3.00;3.00;;;;;17.22;84.84;101089.56;6288834;22;45354;-79
2022/07/01 05:38:27;;;;;;;;;1.33;1.33;;;;;17.38;84.20;101100.16;6287836;22;44752;-79
2022/07/01 05:40:53;;;;;;;;;2.67;2.67;;;;;17.44;83.63;101084.91;6289474;22;45315;-79
2022/07/01 05:43:19;;;;;;;;;2.00;2.00;;;;;17.55;82.63;101085.66;6287853;22;44786;-79
2022/07/01 05:45:46;;;;;;;;;1.00;1.00;;;;;17.66;81.92;101091.84;6288279;22;44839;-80
2022/07/01 05:48:12;;;;;;;;;3.00;2.00;;;;;17.74;81.51;101089.09;6261004;22;45302;-80
2022/07/01 05:50:39;;;;;;;;;1.00;1.00;;;;;17.76;79.86;101082.78;6286544;22;47017;-79
2022/07/01 05:53:06;;;;;;;;;1.00;1.00;;;;;17.92;80.18;101109.59;6288068;22;45382;-79
2022/07/01 05:55:31;;;;;;;;;2.00;1.00;;;;;18.03;79.98;101101.38;6285056;22;45688;-80
2022/07/01 05:57:57;;;;;;;;;3.00;1.67;;;;;18.16;79.27;101106.63;6260911;22;44861;-79
2022/07/01 06:00:27;;;;;;;;;1.00;1.00;;;;;18.17;78.23;101107.50;6259099;22;44997;-80
2022/07/01 06:02:56;;;;;;;;;2.00;2.00;;;;;18.14;78.07;101102.16;6288212;22;45481;-80
2022/07/01 06:05:30;;;;;;;;;2.00;2.00;;;;;18.17;77.47;101100.31;6260701;22;45348;-80
2022/07/01 06:07:56;;;;;;;;;1.33;1.00;;;;;18.22;77.31;101107.44;6300120;22;45560;-80
2022/07/01 06:10:22;;;;;;;;;1.67;1.67;;;;;18.34;77.04;101118.06;6291052;22;46587;-80
2022/07/01 06:12:49;;;;;;;;;3.00;1.00;;;;;18.45;76.46;101109.88;6291456;22;45346;-79
2022/07/01 06:15:17;;;;;;;;;2.33;1.00;;;;;18.43;75.59;101107.19;6318914;22;45337;-80
2022/07/01 06:17:43;;;;;;;;;1.00;1.00;;;;;18.54;75.89;101121.44;6291806;22;45529;-80
2022/07/01 06:20:08;;;;;;;;;3.00;2.00;;;;;18.72;75.34;101124.78;6319145;22;45307;-81
2022/07/01 06:22:34;;;;;;;;;5.33;5.33;;;;;18.85;74.42;101110.25;6318180;22;44887;-80
2022/07/01 06:25:01;;;;;;;;;1.00;1.00;;;;;19.04;73.99;101116.25;6290757;22;45353;-80
2022/07/01 06:27:50;;;;;;;;;4.67;2.33;;;;;19.08;72.78;101111.72;4738270;27;11456338;-81
2022/07/01 06:30:16;;;;;;;;;1.00;1.00;;;;;19.13;71.82;101126.03;5128390;27;45635;-80
2022/07/01 06:32:44;;;;;;;;;1.00;1.00;;;;;19.09;71.47;101119.78;5121318;27;45323;-81
2022/07/01 06:35:10;;;;;;;;;1.00;1.00;;;;;19.08;69.16;101122.50;5109736;27;45354;-81
2022/07/01 06:43:43;;;;;;;;;0.67;0.67;;;;;18.68;69.36;101125.72;5112856;27;45343;-81
2022/07/01 06:46:11;;;;;;;;;0.33;0.33;;;;;18.57;69.24;101125.88;5111314;27;45298;-80
2022/07/01 06:48:37;;;;;;;;;1.00;0.00;;;;;18.52;70.10;101139.41;5130008;27;44871;-81
2022/07/01 06:51:04;;;;;;;;;0.00;0.00;;;;;18.54;70.46;101137.59;5115184;27;45779;-80
2022/07/01 06:53:30;;;;;;;;;1.67;1.67;;;;;18.53;69.25;101114.25;5130991;27;44785;-80
2022/07/01 06:55:57;;;;;;;;;1.00;1.00;;;;;18.61;68.95;101130.31;5129114;27;45386;-81
2022/07/01 06:58:23;;;;;;;;;3.00;1.00;;;;;18.62;68.82;101140.16;5129664;27;45294;-80
2022/07/01 07:00:51;;;;;;;;;1.67;1.00;;;;;18.45;68.89;101116.13;5108048;27;45553;-81
2022/07/01 07:03:20;;;;;;;;;0.67;0.67;;;;;18.51;69.00;101118.75;5107755;27;44939;-80
2022/07/01 07:05:52;;;;;;;;;1.00;1.00;;;;;18.52;69.17;101101.69;5105279;27;45618;-79
2022/07/01 07:08:25;;;;;;;;;0.00;0.00;;;;;18.59;68.31;101079.13;5086905;27;44964;-78
2022/07/01 07:10:51;;;;;;;;;1.00;1.00;;;;;18.78;66.65;101113.91;5086537;27;46990;-80
2022/07/01 07:13:16;;;;;;;;;0.00;0.00;;;;;18.63;66.69;101106.06;5086976;27;45149;-79
2022/07/01 07:15:46;;;;;;;;;1.00;1.00;;;;;18.40;66.56;101085.69;5105186;27;45535;-80
2022/07/01 07:18:34;;;;;;;;;0.33;0.33;;;;;18.36;67.63;101081.22;5107875;27;45329;-80
2022/07/01 07:21:00;;;;;;;;;3.00;1.00;;;;;18.61;67.85;101100.69;5088379;27;46806;-78
2022/07/01 07:23:25;;;;;;;;;0.00;0.00;;;;;18.93;66.71;101140.69;5086953;27;45257;-79
2022/07/01 07:25:51;;;;;;;;;1.00;0.67;;;;;18.97;66.47;101128.94;5082904;27;44875;-80
2022/07/01 07:28:40;;;;;;;;;0.00;0.00;;;;;19.09;66.49;101138.66;5088335;27;45398;-80
2022/07/01 07:31:08;;;;;;;;;0.00;0.00;;;;;19.07;65.16;101105.44;5086789;28;45334;-80
2022/07/01 07:33:43;;;;;;;;;1.50;0.00;;;;;19.43;65.71;101134.53;5086166;28;45416;-80
2022/07/01 07:36:27;;;;;;;;;0.00;0.00;;;;;19.54;64.19;101127.16;5087027;28;45167;-81
2022/07/01 07:39:40;;;;;;;;;0.75;0.75;;;;;19.66;63.00;101116.16;5071863;28;45567;-81
2022/07/01 07:42:23;;;;;;;;;5.00;3.00;;;;;19.73;60.84;101093.59;5071227;28;45456;-80
2022/07/01 07:44:54;;;;;;;;;1.00;1.00;;;;;20.14;59.62;101129.72;5068443;28;45445;-80
2022/07/01 07:47:19;;;;;;;;;0.00;0.00;;;;;20.08;59.92;101107.34;5070380;28;45369;-79
2022/07/01 07:52:40;;;;;;;;;0.67;0.00;;;;;20.41;58.58;101134.59;5063272;28;45696;-80
2022/07/01 07:55:11;;;;;;;;;0.50;0.00;;;;;20.39;56.89;101135.50;5069415;28;45710;-80
2022/07/01 07:57:43;;;;;;;;;1.00;1.00;;;;;20.01;57.09;101076.84;5068570;28;44881;-80
2022/07/01 08:00:18;;;;;;;;;2.00;0.00;;;;;20.07;56.12;101109.13;5072880;28;45867;-81
2022/07/01 08:02:56;;;;;;;;;2.00;1.00;;;;;20.13;56.00;101111.72;5073776;28;45475;-79
2022/07/01 08:05:22;;;;;;;;;2.00;0.00;;;;;20.30;55.38;101119.50;5054939;28;45134;-80
2022/07/01 08:07:54;;;;;;;;;0.00;0.00;;;;;20.41;55.22;101123.78;5053097;28;45410;-81
2022/07/01 08:10:29;;;;;;;;;0.50;0.50;;;;;20.26;53.93;101116.88;5071318;28;45393;-80
2022/07/01 08:13:04;;;;;;;;;1.00;0.00;;;;;20.17;55.21;101123.34;5071818;28;45450;-79
2022/07/01 08:15:38;;;;;;;;;2.00;2.00;;;;;20.21;56.17;101108.00;5071795;28;44897;-80
2022/07/01 08:18:49;;;;;;;;;1.00;1.00;;;;;20.64;55.26;101135.03;5070611;28;45860;-82
2022/07/01 08:21:27;;;;;;;;;1.00;1.00;;;;;20.70;55.21;101139.41;5041971;28;44945;-81
2022/07/01 08:23:56;;;;;;;;;1.00;1.00;;;;;20.92;54.02;101148.81;5059193;28;47356;-80
2022/07/01 08:26:27;;;;;;;;;1.75;1.00;;;;;20.95;53.70;101135.25;5070856;28;45613;-79
2022/07/01 08:29:01;;;;;;;;;0.50;0.50;;;;;21.12;53.62;101150.19;5069690;28;45488;-80
2022/07/01 08:31:33;;;;;;;;;0.25;0.25;;;;;20.93;53.56;101106.47;5030730;28;44952;-81
2022/07/01 08:34:09;;;;;;;;;;;;;;;;;;;;;
2022/07/01 08:36:37;;;;;;;;;1.00;1.00;;;;;21.04;51.69;101112.50;5047875;28;71870;-79
2022/07/01 08:42:14;;;;;;;;;1.67;1.67;;;;;21.13;52.00;101161.00;4993127;28;44856;-79
2022/07/01 08:44:40;;;;;;;;;1.67;1.67;;;;;21.05;50.41;101164.81;5010176;28;45602;-78
2022/07/01 08:47:15;;;;;;;;;2.67;1.00;;;;;20.68;51.14;101127.75;5028609;28;45367;-80
2022/07/01 08:49:41;;;;;;;;;1.00;1.00;;;;;20.75;52.14;101126.69;4995308;28;45445;-79
2022/07/01 08:52:11;;;;;;;;;3.00;1.75;;;;;21.06;52.48;101144.94;5045697;28;45540;-80
2022/07/01 08:54:42;;;;;;;;;0.50;0.50;;;;;21.26;52.05;101153.47;5030411;28;45486;-80
2022/07/01 08:57:23;;;;;;;;;1.00;1.00;;;;;21.32;51.33;101150.63;5033491;28;45670;-81
2022/07/01 09:00:17;;;;;;;;;1.00;1.00;;;;;21.29;51.43;101120.94;5058277;28;45486;-79
2022/07/01 09:03:10;;;;;;;;;0.33;0.33;;;;;21.63;50.72;101159.84;5068662;28;45480;-80
2022/07/01 09:05:46;;;;;;;;;1.00;1.00;;;;;21.37;50.76;101118.06;5069607;28;45398;-80
2022/07/01 09:08:47;;;;;;;;;1.00;1.00;;;;;21.73;49.82;101167.72;5064235;28;44857;-81
2022/07/01 09:11:26;;;;;;;;;2.00;2.00;;;;;21.37;51.04;101131.59;5070568;28;44906;-82
2022/07/01 09:24:24;;;;;;;;;1.67;1.67;;;;;21.66;49.83;101120.03;5049865;28;45445;-81
2022/07/01 09:27:23;;;;;;;;;2.00;0.00;;;;;21.87;49.32;101163.72;5031938;28;44917;-81
2022/07/01 09:29:53;;;;;;;;;2.00;1.00;;;;;21.59;50.27;101167.13;5035797;28;46118;-81
2022/07/01 09:32:23;;;;;;;;;2.33;1.00;;;;;21.47;50.73;101187.28;5049025;28;45537;-79
2022/07/01 09:35:23;;;;;;;;;0.00;0.00;;;;;21.12;50.25;101156.50;5033648;28;45418;-81
2022/07/01 09:37:58;;;;;;;;;0.67;0.67;;;;;21.04;49.29;101139.56;5022608;28;44998;-80
2022/07/01 09:41:18;;;;;;;;;1.67;1.67;;;;;21.31;51.15;101181.31;5046879;28;45426;-80
2022/07/01 09:46:58;;;;;;;;;2.00;0.00;;;;;21.74;50.77;101153.22;4894444;29;45553;-82
2022/07/01 09:49:30;;;;;;;;;0.00;0.00;;;;;21.91;49.80;101192.50;4878685;29;44912;-81
2022/07/01 09:51:58;;;;;;;;;1.00;1.00;;;;;21.77;50.36;101154.94;4894268;29;46801;-80
2022/07/01 09:54:30;;;;;;;;;0.00;0.00;;;;;21.95;50.30;101150.88;4894385;29;45590;-81
2022/07/01 09:56:59;;;;;;;;;0.25;0.25;;;;;22.13;48.75;101144.97;4894998;29;45495;-81
2022/07/01 09:59:26;;;;;;;;;0.00;0.00;;;;;22.26;48.71;101160.91;4894795;29;44889;-82
2022/07/01 10:01:52;;;;;;;;;0.75;0.75;;;;;22.29;48.16;101150.00;4909666;29;45449;-81
2022/07/01 10:11:22;;;;;;;;;1.00;1.00;;;;;22.40;48.77;101180.41;4964228;28;44834;-81
2022/07/01 10:13:55;;;;;;;;;0.25;0.25;;;;;22.36;48.81;101162.47;4991066;28;46687;-79
2022/07/01 10:16:21;;;;;;;;;0.00;0.00;;;;;22.50;48.10;101171.06;4989621;28;45714;-79
2022/07/01 10:19:22;;;;;;;;;1.00;1.00;;;;;22.68;46.73;101191.34;4972092;28;45440;-81
2022/07/01 10:21:48;;;;;;;;;0.50;0.50;;;;;22.61;47.11;101164.47;4917919;28;45695;-80
2022/07/01 10:24:19;;;;;;;;;0.33;0.33;;;;;22.88;46.95;101168.16;4953678;28;46818;-79
2022/07/01 10:27:25;;;;;;;;;1.00;1.00;;;;;23.20;46.51;101183.47;4953151;28;45393;-80
2022/07/01 10:30:33;;;;;;;;;1.00;1.00;;;;;23.41;46.06;101179.22;4916500;28;45418;-84
2022/07/01 10:33:37;;;;;;;;;1.00;1.00;;;;;23.57;44.97;101166.00;4908657;29;44821;-83
2022/07/01 10:36:20;;;;;;;;;;;;;;;;;;;;;
2022/07/01 10:39:17;;;;;;;;;1.00;1.00;;;;;23.46;45.59;101176.34;4890658;29;71347;-82
2022/07/01 10:41:48;;;;;;;;;0.00;0.00;;;;;23.33;45.03;101174.03;4893151;29;45009;-82
2022/07/01 10:44:27;;;;;;;;;0.25;0.25;;;;;23.00;45.40;101137.94;4896323;29;45248;-81
2022/07/01 10:47:31;;;;;;;;;1.00;1.00;;;;;23.13;46.00;101171.06;4910831;29;45930;-82
2022/07/01 10:50:17;;;;;;;;;1.00;1.00;;;;;23.29;46.37;101177.78;4896482;29;45518;-84
2022/07/01 10:53:13;;;;;;;;;2.00;2.00;;;;;23.33;45.17;101179.44;4911127;28;45456;-82
2022/07/01 10:55:56;;;;;;;;;3.50;2.25;;;;;23.23;45.64;101134.53;4892803;29;45405;-82
2022/07/01 10:58:38;;;;;;;;;1.00;0.00;;;;;23.75;44.77;101178.06;4916254;28;45282;-83
2022/07/01 11:01:46;;;;;;;;;0.00;0.00;;;;;24.17;44.13;101183.88;4897360;28;45268;-82
2022/07/01 11:07:07;;;;;;;;;;;;;;;;;;;;;
2022/07/01 11:09:33;;;;;;;;;0.67;0.67;;;;;24.43;41.75;101171.19;5031080;28;73965;-81
2022/07/01 11:12:05;;;;;;;;;2.00;2.00;;;;;24.15;42.20;101136.84;5000026;28;45429;-81
2022/07/01 11:18:02;;;;;;;;;1.25;1.00;;;;;23.96;41.75;101185.53;5008726;28;44856;-81
2022/07/01 11:20:32;;;;;;;;;0.00;0.00;;;;;23.57;40.25;101136.13;5027553;28;45253;-82
2022/07/01 11:23:07;;;;;;;;;0.75;0.75;;;;;23.55;42.15;101154.28;5030049;28;45320;-81
2022/07/01 11:26:28;;;;;;;;;3.00;1.00;;;;;23.52;42.48;101138.13;5016230;28;44786;-79
2022/07/01 11:29:27;;;;;;;;;1.33;1.33;;;;;23.69;42.92;101173.75;4877828;29;45291;-81
2022/07/01 11:32:00;;;;;;;;;1.67;1.00;;;;;23.35;42.67;101134.16;4860455;29;46798;-81
2022/07/01 11:34:30;;;;;;;;;10.33;10.00;;;;;23.30;42.32;101130.69;4858959;29;45217;-80
2022/07/01 11:40:34;;;;;;;;;2.00;2.00;;;;;23.74;42.90;101182.63;4857110;29;44856;-80
2022/07/01 11:43:03;;;;;;;;;2.33;2.33;;;;;23.75;42.42;101165.41;4894935;29;45553;-82
2022/07/01 11:45:41;;;;;;;;;3.00;3.00;;;;;24.06;42.58;101174.34;4917277;29;45607;-80
2022/07/01 11:48:06;;;;;;;;;3.00;3.00;;;;;24.23;41.51;101181.88;4919944;28;45549;-81
2022/07/01 11:50:32;;;;;;;;;2.00;2.00;;;;;24.20;40.86;101141.22;4901440;28;45477;-81
2022/07/01 11:53:35;;;;;;;;;3.00;3.00;;;;;24.79;39.76;101172.63;4902367;28;46945;-81
2022/07/01 11:56:01;;;;;;;;;1.00;1.00;;;;;25.04;39.42;101167.97;4916018;29;44848;-80
2022/07/01 11:58:47;;;;;;;;;0.50;0.50;;;;;25.20;38.21;101181.88;4918697;28;44849;-82
2022/07/01 12:01:50;;;;;;;;;0.50;0.50;;;;;25.41;37.20;101177.44;4954398;28;45410;-80
2022/07/01 12:04:16;;;;;;;;;0.25;0.25;;;;;25.37;38.23;101155.81;4945401;28;45601;-80
2022/07/01 12:06:51;;;;;;;;;0.00;0.00;;;;;25.34;38.19;101171.34;4905639;29;44814;-81
2022/07/01 12:09:26;;;;;;;;;1.00;1.00;;;;;25.17;38.31;101179.28;4917790;28;45474;-81
2022/07/01 12:12:40;;;;;;;;;0.67;0.00;;;;;25.10;37.57;101180.47;4906817;28;45379;-82
2022/07/01 12:15:18;;;;;;;;;1.00;0.00;;;;;24.74;36.71;101189.09;4996497;28;45407;-81
2022/07/01 12:18:05;;;;;;;;;0.50;0.50;;;;;24.40;38.16;101157.72;4991509;28;45332;-81
2022/07/01 12:27:29;;;;;;;;;0.00;0.00;;;;;24.85;38.18;101180.53;5009515;28;44991;-81
2022/07/01 12:29:54;;;;;;;;;1.67;1.33;;;;;25.05;37.82;101177.94;4984789;28;45421;-82
2022/07/01 12:32:28;;;;;;;;;1.00;1.00;;;;;25.18;38.53;101185.59;5011179;28;45386;-82
2022/07/01 12:35:04;;;;;;;;;0.00;0.00;;;;;25.30;38.38;101172.41;4993754;28;45222;-82
2022/07/01 12:37:38;;;;;;;;;0.00;0.00;;;;;25.32;38.27;101170.50;4991123;28;45467;-81
2022/07/01 12:40:20;;;;;;;;;1.25;1.00;;;;;25.16;37.61;101158.44;4975338;28;44807;-80
2022/07/01 12:53:03;;;;;;;;;1.25;1.00;;;;;25.51;37.79;101173.38;4988685;28;45315;-80
2022/07/01 12:55:40;;;;;;;;;0.00;0.00;;;;;25.54;37.48;101147.84;4990622;28;45521;-80
2022/07/01 12:58:15;;;;;;;;;0.00;0.00;;;;;25.73;36.90;101159.75;4991654;28;44989;-80
2022/07/01 13:00:45;;;;;;;;;1.00;0.00;;;;;25.96;36.45;101182.44;4992058;28;46687;-80
2022/07/01 13:03:13;;;;;;;;;0.00;0.00;;;;;25.97;35.25;101146.03;4990747;28;45466;-82
2022/07/01 13:05:53;;;;;;;;;0.75;0.50;;;;;25.99;35.71;101138.69;4975112;28;45464;-81
2022/07/01 13:08:22;;;;;;;;;0.00;0.00;;;;;26.09;35.81;101170.03;4990562;28;45643;-81